sensor_id;sensor_type;location;lat;lon;timestamp;temperature;humidity
13354;DHT22;6746;50.892;4.064;2023-02-05T00:02:12;8.50;99.90
13354;DHT22;6746;50.892;4.064;2023-02-05T00:04:50;8.50;99.90
13354;DHT22;6746;50.892;4.064;2023-02-05T00:07:29;8.50;99.90
13354;DHT22;6746;50.892;4.064;2023-02-05T00:10:07;8.50;99.90
13354;DHT22;6746;50.892;4.064;2023-02-05T00:12:45;8.50;99.90
13354;DHT22;6746;50.892;4.064;2023-02-05T00:15:34;8.50;99.90
13354;DHT22;6746;50.892;4.064;2023-02-05T00:18:12;8.50;99.90
13354;DHT22;6746;50.892;4.064;2023-02-05T00:20:50;8.50;99.90
13354;DHT22;6746;50.892;4.064;2023-02-05T00:23:28;8.40;99.90
13354;DHT22;6746;50.892;4.064;2023-02-05T00:26:06;8.50;99.90
13354;DHT22;6746;50.892;4.064;2023-02-05T00:28:50;8.40;99.90
13354;DHT22;6746;50.892;4.064;2023-02-05T00:31:28;8.40;99.90
13354;DHT22;6746;50.892;4.064;2023-02-05T00:34:16;8.40;99.90
13354;DHT22;6746;50.892;4.064;2023-02-05T00:37:03;8.40;99.90
13354;DHT22;6746;50.892;4.064;2023-02-05T00:39:45;8.40;99.90
13354;DHT22;6746;50.892;4.064;2023-02-05T00:42:23;8.40;99.90
13354;DHT22;6746;50.892;4.064;2023-02-05T00:45:11;8.40;99.90
13354;DHT22;6746;50.892;4.064;2023-02-05T00:47:54;8.40;99.90
13354;DHT22;6746;50.892;4.064;2023-02-05T00:50:33;8.40;99.90
13354;DHT22;6746;50.892;4.064;2023-02-05T00:53:14;8.40;99.90
13354;DHT22;6746;50.892;4.064;2023-02-05T00:55:52;8.30;99.90
13354;DHT22;6746;50.892;4.064;2023-02-05T00:58:40;8.30;99.90
13354;DHT22;6746;50.892;4.064;2023-02-05T01:01:18;8.30;99.90
13354;DHT22;6746;50.892;4.064;2023-02-05T01:03:57;8.30;99.90
13354;DHT22;6746;50.892;4.064;2023-02-05T01:06:35;8.30;99.90
13354;DHT22;6746;50.892;4.064;2023-02-05T01:09:13;8.30;99.90
13354;DHT22;6746;50.892;4.064;2023-02-05T01:11:55;8.30;99.90
13354;DHT22;6746;50.892;4.064;2023-02-05T01:14:36;8.20;99.90
13354;DHT22;6746;50.892;4.064;2023-02-05T01:17:19;8.20;99.90
13354;DHT22;6746;50.892;4.064;2023-02-05T01:19:57;8.20;99.90
13354;DHT22;6746;50.892;4.064;2023-02-05T01:22:40;8.20;99.90
13354;DHT22;6746;50.892;4.064;2023-02-05T01:25:19;8.20;99.90
13354;DHT22;6746;50.892;4.064;2023-02-05T01:28:02;8.20;99.90
13354;DHT22;6746;50.892;4.064;2023-02-05T01:30:40;8.20;99.90
13354;DHT22;6746;50.892;4.064;2023-02-05T01:33:27;8.20;99.90
13354;DHT22;6746;50.892;4.064;2023-02-05T01:36:06;8.20;99.90
13354;DHT22;6746;50.892;4.064;2023-02-05T01:38:44;8.20;99.90
13354;DHT22;6746;50.892;4.064;2023-02-05T01:41:32;8.20;99.90
13354;DHT22;6746;50.892;4.064;2023-02-05T01:44:14;8.20;99.90
13354;DHT22;6746;50.892;4.064;2023-02-05T01:46:52;8.20;99.90
13354;DHT22;6746;50.892;4.064;2023-02-05T01:49:35;8.20;99.90
13354;DHT22;6746;50.892;4.064;2023-02-05T01:52:13;8.20;99.90
13354;DHT22;6746;50.892;4.064;2023-02-05T01:55:00;8.20;99.90
13354;DHT22;6746;50.892;4.064;2023-02-05T01:57:38;8.20;99.90
13354;DHT22;6746;50.892;4.064;2023-02-05T02:00:16;8.20;99.90
13354;DHT22;6746;50.892;4.064;2023-02-05T02:03:04;8.20;99.90
13354;DHT22;6746;50.892;4.064;2023-02-05T02:05:43;8.20;99.90
13354;DHT22;6746;50.892;4.064;2023-02-05T02:08:21;8.20;99.90
13354;DHT22;6746;50.892;4.064;2023-02-05T02:11:07;8.20;99.90
13354;DHT22;6746;50.892;4.064;2023-02-05T02:13:46;8.20;99.90
13354;DHT22;6746;50.892;4.064;2023-02-05T02:16:29;8.20;99.90
13354;DHT22;6746;50.892;4.064;2023-02-05T02:19:13;8.20;99.90
13354;DHT22;6746;50.892;4.064;2023-02-05T02:28:18;8.20;99.90
13354;DHT22;6746;50.892;4.064;2023-02-05T02:31:10;8.20;99.90
13354;DHT22;6746;50.892;4.064;2023-02-05T02:34:01;8.10;99.90
13354;DHT22;6746;50.892;4.064;2023-02-05T02:36:57;8.10;99.90
13354;DHT22;6746;50.892;4.064;2023-02-05T02:39:43;8.10;99.90
13354;DHT22;6746;50.892;4.064;2023-02-05T02:42:32;8.10;99.90
13354;DHT22;6746;50.892;4.064;2023-02-05T02:45:12;8.10;99.90
13354;DHT22;6746;50.892;4.064;2023-02-05T02:47:54;8.10;99.90
13354;DHT22;6746;50.892;4.064;2023-02-05T02:50:42;8.10;99.90
13354;DHT22;6746;50.892;4.064;2023-02-05T02:53:32;8.10;99.90
13354;DHT22;6746;50.892;4.064;2023-02-05T02:56:17;8.10;99.90
13354;DHT22;6746;50.892;4.064;2023-02-05T02:59:10;8.10;99.90
13354;DHT22;6746;50.892;4.064;2023-02-05T03:01:49;8.00;99.90
13354;DHT22;6746;50.892;4.064;2023-02-05T03:04:30;8.00;99.90
13354;DHT22;6746;50.892;4.064;2023-02-05T03:07:15;8.00;99.90
13354;DHT22;6746;50.892;4.064;2023-02-05T03:10:06;8.00;99.90
13354;DHT22;6746;50.892;4.064;2023-02-05T03:12:53;8.00;99.90
13354;DHT22;6746;50.892;4.064;2023-02-05T03:15:32;8.00;99.90
13354;DHT22;6746;50.892;4.064;2023-02-05T03:18:19;8.00;99.90
13354;DHT22;6746;50.892;4.064;2023-02-05T03:20:59;8.00;99.90
13354;DHT22;6746;50.892;4.064;2023-02-05T03:23:36;8.00;99.90
13354;DHT22;6746;50.892;4.064;2023-02-05T03:26:29;7.90;99.90
13354;DHT22;6746;50.892;4.064;2023-02-05T03:29:08;7.90;99.90
13354;DHT22;6746;50.892;4.064;2023-02-05T03:38:56;7.90;99.90
13354;DHT22;6746;50.892;4.064;2023-02-05T03:41:14;7.90;99.90
13354;DHT22;6746;50.892;4.064;2023-02-05T03:44:07;7.90;99.90
13354;DHT22;6746;50.892;4.064;2023-02-05T03:46:52;7.90;99.90
13354;DHT22;6746;50.892;4.064;2023-02-05T03:49:30;7.90;99.90
13354;DHT22;6746;50.892;4.064;2023-02-05T03:52:14;7.90;99.90
13354;DHT22;6746;50.892;4.064;2023-02-05T03:55:08;7.90;99.90
13354;DHT22;6746;50.892;4.064;2023-02-05T04:00:32;7.90;99.90
13354;DHT22;6746;50.892;4.064;2023-02-05T04:03:13;8.00;99.90
13354;DHT22;6746;50.892;4.064;2023-02-05T04:05:51;7.90;99.90
13354;DHT22;6746;50.892;4.064;2023-02-05T04:08:34;7.90;99.90
13354;DHT22;6746;50.892;4.064;2023-02-05T04:11:12;8.00;99.90
13354;DHT22;6746;50.892;4.064;2023-02-05T04:13:53;7.90;99.90
13354;DHT22;6746;50.892;4.064;2023-02-05T04:16:31;8.00;99.90
13354;DHT22;6746;50.892;4.064;2023-02-05T04:19:09;7.90;99.90
13354;DHT22;6746;50.892;4.064;2023-02-05T04:21:48;8.00;99.90
13354;DHT22;6746;50.892;4.064;2023-02-05T04:24:31;7.90;99.90
13354;DHT22;6746;50.892;4.064;2023-02-05T04:27:09;8.00;99.90
13354;DHT22;6746;50.892;4.064;2023-02-05T04:29:47;8.00;99.90
13354;DHT22;6746;50.892;4.064;2023-02-05T04:32:25;8.00;99.90
13354;DHT22;6746;50.892;4.064;2023-02-05T04:35:06;8.00;99.90
13354;DHT22;6746;50.892;4.064;2023-02-05T04:37:44;8.00;99.90
13354;DHT22;6746;50.892;4.064;2023-02-05T04:40:30;8.00;99.90
13354;DHT22;6746;50.892;4.064;2023-02-05T04:43:08;8.00;99.90
13354;DHT22;6746;50.892;4.064;2023-02-05T04:45:56;7.90;99.90
13354;DHT22;6746;50.892;4.064;2023-02-05T04:48:34;7.90;99.90
13354;DHT22;6746;50.892;4.064;2023-02-05T04:51:13;7.80;99.90
13354;DHT22;6746;50.892;4.064;2023-02-05T04:53:54;7.70;99.90
13354;DHT22;6746;50.892;4.064;2023-02-05T04:56:32;7.70;99.90
13354;DHT22;6746;50.892;4.064;2023-02-05T04:59:20;7.70;99.90
13354;DHT22;6746;50.892;4.064;2023-02-05T05:01:58;7.70;99.90
13354;DHT22;6746;50.892;4.064;2023-02-05T05:04:37;7.60;99.90
13354;DHT22;6746;50.892;4.064;2023-02-05T05:07:17;7.60;99.90
13354;DHT22;6746;50.892;4.064;2023-02-05T05:09:55;7.60;99.90
13354;DHT22;6746;50.892;4.064;2023-02-05T05:12:34;7.60;99.90
13354;DHT22;6746;50.892;4.064;2023-02-05T05:15:12;7.60;99.90
13354;DHT22;6746;50.892;4.064;2023-02-05T05:17:53;7.60;99.90
13354;DHT22;6746;50.892;4.064;2023-02-05T05:20:31;7.50;99.90
13354;DHT22;6746;50.892;4.064;2023-02-05T05:23:09;7.50;99.90
13354;DHT22;6746;50.892;4.064;2023-02-05T05:25:48;7.50;99.90
13354;DHT22;6746;50.892;4.064;2023-02-05T05:28:36;7.50;99.90
13354;DHT22;6746;50.892;4.064;2023-02-05T05:31:15;7.50;99.90
13354;DHT22;6746;50.892;4.064;2023-02-05T05:33:55;7.50;99.90
13354;DHT22;6746;50.892;4.064;2023-02-05T05:36:33;7.50;99.90
13354;DHT22;6746;50.892;4.064;2023-02-05T05:39:11;7.50;99.90
13354;DHT22;6746;50.892;4.064;2023-02-05T05:42:17;7.50;99.90
13354;DHT22;6746;50.892;4.064;2023-02-05T05:45:23;7.60;99.90
13354;DHT22;6746;50.892;4.064;2023-02-05T05:48:11;7.60;99.90
13354;DHT22;6746;50.892;4.064;2023-02-05T05:50:49;7.60;99.90
13354;DHT22;6746;50.892;4.064;2023-02-05T05:53:28;7.60;99.90
13354;DHT22;6746;50.892;4.064;2023-02-05T05:56:06;7.60;99.90
13354;DHT22;6746;50.892;4.064;2023-02-05T05:58:44;7.60;99.90
13354;DHT22;6746;50.892;4.064;2023-02-05T06:01:30;7.60;99.90
13354;DHT22;6746;50.892;4.064;2023-02-05T06:04:09;7.60;99.90
13354;DHT22;6746;50.892;4.064;2023-02-05T06:06:57;7.60;99.90
13354;DHT22;6746;50.892;4.064;2023-02-05T06:09:35;7.60;99.90
13354;DHT22;6746;50.892;4.064;2023-02-05T06:12:13;7.70;99.90
13354;DHT22;6746;50.892;4.064;2023-02-05T06:14:54;7.70;99.90
13354;DHT22;6746;50.892;4.064;2023-02-05T06:17:32;7.70;99.90
13354;DHT22;6746;50.892;4.064;2023-02-05T06:20:11;7.80;99.90
13354;DHT22;6746;50.892;4.064;2023-02-05T06:22:49;7.80;99.90
13354;DHT22;6746;50.892;4.064;2023-02-05T06:25:27;7.80;99.90
13354;DHT22;6746;50.892;4.064;2023-02-05T06:28:05;7.80;99.90
13354;DHT22;6746;50.892;4.064;2023-02-05T06:30:46;7.80;99.90
13354;DHT22;6746;50.892;4.064;2023-02-05T06:33:24;7.80;99.90
13354;DHT22;6746;50.892;4.064;2023-02-05T06:36:12;7.80;99.90
13354;DHT22;6746;50.892;4.064;2023-02-05T06:38:50;7.70;99.90
13354;DHT22;6746;50.892;4.064;2023-02-05T06:41:29;7.70;99.90
13354;DHT22;6746;50.892;4.064;2023-02-05T06:44:12;7.60;99.90
13354;DHT22;6746;50.892;4.064;2023-02-05T06:46:50;7.70;99.90
13354;DHT22;6746;50.892;4.064;2023-02-05T06:49:31;7.60;99.90
13354;DHT22;6746;50.892;4.064;2023-02-05T06:52:09;7.60;99.90
13354;DHT22;6746;50.892;4.064;2023-02-05T06:54:47;7.50;99.90
13354;DHT22;6746;50.892;4.064;2023-02-05T06:57:26;7.40;99.90
13354;DHT22;6746;50.892;4.064;2023-02-05T07:00:04;7.40;99.90
13354;DHT22;6746;50.892;4.064;2023-02-05T07:02:42;7.30;99.90
13354;DHT22;6746;50.892;4.064;2023-02-05T07:05:31;7.30;99.90
13354;DHT22;6746;50.892;4.064;2023-02-05T07:08:09;7.20;99.90
13354;DHT22;6746;50.892;4.064;2023-02-05T07:10:47;7.20;99.90
13354;DHT22;6746;50.892;4.064;2023-02-05T07:13:25;7.20;99.90
13354;DHT22;6746;50.892;4.064;2023-02-05T07:16:04;7.20;99.90
13354;DHT22;6746;50.892;4.064;2023-02-05T07:18:52;7.10;99.90
13354;DHT22;6746;50.892;4.064;2023-02-05T07:21:30;7.10;99.90
13354;DHT22;6746;50.892;4.064;2023-02-05T07:23:58;7.10;99.90
13354;DHT22;6746;50.892;4.064;2023-02-05T07:26:37;7.10;99.90
13354;DHT22;6746;50.892;4.064;2023-02-05T07:29:15;7.10;99.90
13354;DHT22;6746;50.892;4.064;2023-02-05T07:31:44;7.10;99.90
13354;DHT22;6746;50.892;4.064;2023-02-05T07:34:13;7.10;99.90
13354;DHT22;6746;50.892;4.064;2023-02-05T07:36:45;7.10;99.90
13354;DHT22;6746;50.892;4.064;2023-02-05T07:39:13;7.10;99.90
13354;DHT22;6746;50.892;4.064;2023-02-05T07:41:52;7.10;99.90
13354;DHT22;6746;50.892;4.064;2023-02-05T07:44:31;7.10;99.90
13354;DHT22;6746;50.892;4.064;2023-02-05T07:47:02;7.10;99.90
13354;DHT22;6746;50.892;4.064;2023-02-05T07:49:31;7.20;99.90
13354;DHT22;6746;50.892;4.064;2023-02-05T07:52:02;7.20;99.90
13354;DHT22;6746;50.892;4.064;2023-02-05T07:54:31;7.20;99.90
13354;DHT22;6746;50.892;4.064;2023-02-05T07:57:09;7.20;99.90
13354;DHT22;6746;50.892;4.064;2023-02-05T07:59:38;7.30;99.90
13354;DHT22;6746;50.892;4.064;2023-02-05T08:02:15;7.30;99.90
13354;DHT22;6746;50.892;4.064;2023-02-05T08:04:43;7.40;99.90
13354;DHT22;6746;50.892;4.064;2023-02-05T08:07:23;7.30;99.90
13354;DHT22;6746;50.892;4.064;2023-02-05T08:09:51;7.40;99.90
13354;DHT22;6746;50.892;4.064;2023-02-05T08:12:20;7.40;99.90
13354;DHT22;6746;50.892;4.064;2023-02-05T08:14:49;7.50;99.90
13354;DHT22;6746;50.892;4.064;2023-02-05T08:17:23;7.50;99.90
13354;DHT22;6746;50.892;4.064;2023-02-05T08:19:52;7.60;99.90
13354;DHT22;6746;50.892;4.064;2023-02-05T08:22:21;7.60;99.90
13354;DHT22;6746;50.892;4.064;2023-02-05T08:24:49;7.60;99.90
13354;DHT22;6746;50.892;4.064;2023-02-05T08:27:21;7.60;99.90
13354;DHT22;6746;50.892;4.064;2023-02-05T08:29:50;7.70;99.90
13354;DHT22;6746;50.892;4.064;2023-02-05T08:32:19;7.70;99.90
13354;DHT22;6746;50.892;4.064;2023-02-05T08:34:48;7.60;99.90
13354;DHT22;6746;50.892;4.064;2023-02-05T08:37:17;7.70;99.90
13354;DHT22;6746;50.892;4.064;2023-02-05T08:39:46;7.70;99.90
13354;DHT22;6746;50.892;4.064;2023-02-05T08:42:15;7.70;99.90
13354;DHT22;6746;50.892;4.064;2023-02-05T08:44:44;7.60;99.90
13354;DHT22;6746;50.892;4.064;2023-02-05T08:47:23;7.70;99.90
13354;DHT22;6746;50.892;4.064;2023-02-05T08:50:04;7.70;99.90
13354;DHT22;6746;50.892;4.064;2023-02-05T08:52:32;7.70;99.90
13354;DHT22;6746;50.892;4.064;2023-02-05T08:55:01;7.70;99.90
13354;DHT22;6746;50.892;4.064;2023-02-05T08:57:30;7.70;99.90
13354;DHT22;6746;50.892;4.064;2023-02-05T08:59:59;7.70;99.90
13354;DHT22;6746;50.892;4.064;2023-02-05T09:02:39;7.70;99.90
13354;DHT22;6746;50.892;4.064;2023-02-05T09:05:09;7.80;99.90
13354;DHT22;6746;50.892;4.064;2023-02-05T09:07:38;7.70;99.90
13354;DHT22;6746;50.892;4.064;2023-02-05T09:10:15;7.70;99.90
13354;DHT22;6746;50.892;4.064;2023-02-05T09:12:45;7.70;99.90
13354;DHT22;6746;50.892;4.064;2023-02-05T09:15:24;7.80;99.90
13354;DHT22;6746;50.892;4.064;2023-02-05T09:17:53;7.80;99.90
13354;DHT22;6746;50.892;4.064;2023-02-05T09:20:22;7.80;99.90
13354;DHT22;6746;50.892;4.064;2023-02-05T09:23:01;7.80;99.90
13354;DHT22;6746;50.892;4.064;2023-02-05T09:25:30;7.90;99.90
13354;DHT22;6746;50.892;4.064;2023-02-05T09:27:58;7.90;99.90
13354;DHT22;6746;50.892;4.064;2023-02-05T09:30:27;8.00;99.90
13354;DHT22;6746;50.892;4.064;2023-02-05T09:33:06;8.00;99.90
13354;DHT22;6746;50.892;4.064;2023-02-05T09:35:34;8.00;99.90
13354;DHT22;6746;50.892;4.064;2023-02-05T09:38:03;8.00;99.90
13354;DHT22;6746;50.892;4.064;2023-02-05T09:40:49;7.90;99.90
13354;DHT22;6746;50.892;4.064;2023-02-05T09:49:30;7.50;99.90
13354;DHT22;6746;50.892;4.064;2023-02-05T09:52:07;7.50;99.90
13354;DHT22;6746;50.892;4.064;2023-02-05T09:54:51;7.50;99.90
13354;DHT22;6746;50.892;4.064;2023-02-05T09:57:29;7.50;99.90
13354;DHT22;6746;50.892;4.064;2023-02-05T09:59:53;7.60;99.90
13354;DHT22;6746;50.892;4.064;2023-02-05T10:02:40;7.70;99.90
13354;DHT22;6746;50.892;4.064;2023-02-05T10:05:11;7.80;99.90
13354;DHT22;6746;50.892;4.064;2023-02-05T10:07:42;7.80;99.90
13354;DHT22;6746;50.892;4.064;2023-02-05T10:10:28;7.90;99.90
13354;DHT22;6746;50.892;4.064;2023-02-05T10:13:25;8.00;99.90
13354;DHT22;6746;50.892;4.064;2023-02-05T10:22:00;8.30;99.90
13354;DHT22;6746;50.892;4.064;2023-02-05T10:24:59;8.30;99.90
13354;DHT22;6746;50.892;4.064;2023-02-05T10:33:17;8.20;99.90
13354;DHT22;6746;50.892;4.064;2023-02-05T10:36:04;8.20;99.90
13354;DHT22;6746;50.892;4.064;2023-02-05T10:38:45;8.20;99.90
13354;DHT22;6746;50.892;4.064;2023-02-05T10:44:10;8.20;99.90
13354;DHT22;6746;50.892;4.064;2023-02-05T10:46:48;8.30;99.90
13354;DHT22;6746;50.892;4.064;2023-02-05T10:50:18;8.40;99.90
13354;DHT22;6746;50.892;4.064;2023-02-05T10:52:03;8.50;99.90
13354;DHT22;6746;50.892;4.064;2023-02-05T10:54:32;8.50;99.90
13354;DHT22;6746;50.892;4.064;2023-02-05T10:57:01;8.50;99.90
13354;DHT22;6746;50.892;4.064;2023-02-05T10:59:43;8.70;99.90
13354;DHT22;6746;50.892;4.064;2023-02-05T11:02:19;8.70;99.90
13354;DHT22;6746;50.892;4.064;2023-02-05T11:05:00;8.80;99.90
13354;DHT22;6746;50.892;4.064;2023-02-05T11:07:38;8.70;99.90
13354;DHT22;6746;50.892;4.064;2023-02-05T11:10:18;8.80;99.90
13354;DHT22;6746;50.892;4.064;2023-02-05T11:12:46;8.90;99.90
13354;DHT22;6746;50.892;4.064;2023-02-05T11:15:29;8.90;99.90
13354;DHT22;6746;50.892;4.064;2023-02-05T11:17:58;8.80;99.90
13354;DHT22;6746;50.892;4.064;2023-02-05T11:23:16;8.70;99.90
13354;DHT22;6746;50.892;4.064;2023-02-05T11:25:56;8.60;99.90
13354;DHT22;6746;50.892;4.064;2023-02-05T11:28:28;8.70;99.90
13354;DHT22;6746;50.892;4.064;2023-02-05T11:30:56;8.80;99.90
13354;DHT22;6746;50.892;4.064;2023-02-05T11:33:26;8.90;99.90
13354;DHT22;6746;50.892;4.064;2023-02-05T11:36:05;9.00;99.90
13354;DHT22;6746;50.892;4.064;2023-02-05T11:38:36;8.90;99.90
13354;DHT22;6746;50.892;4.064;2023-02-05T11:41:26;8.90;99.90
13354;DHT22;6746;50.892;4.064;2023-02-05T11:43:53;9.00;99.90
13354;DHT22;6746;50.892;4.064;2023-02-05T11:46:23;9.10;99.90
13354;DHT22;6746;50.892;4.064;2023-02-05T11:48:58;9.20;99.90
13354;DHT22;6746;50.892;4.064;2023-02-05T11:51:42;9.10;99.90
13354;DHT22;6746;50.892;4.064;2023-02-05T11:54:19;9.10;99.90
13354;DHT22;6746;50.892;4.064;2023-02-05T12:00:17;8.90;99.90
13354;DHT22;6746;50.892;4.064;2023-02-05T12:02:36;9.00;99.90
13354;DHT22;6746;50.892;4.064;2023-02-05T12:07:44;9.00;99.90
13354;DHT22;6746;50.892;4.064;2023-02-05T12:16:21;9.40;99.90
13354;DHT22;6746;50.892;4.064;2023-02-05T12:19:23;9.30;99.90
13354;DHT22;6746;50.892;4.064;2023-02-05T12:21:57;9.20;99.90
13354;DHT22;6746;50.892;4.064;2023-02-05T12:30:29;9.30;99.90
13354;DHT22;6746;50.892;4.064;2023-02-05T12:39:10;9.20;99.90
13354;DHT22;6746;50.892;4.064;2023-02-05T12:47:19;9.10;99.90
13354;DHT22;6746;50.892;4.064;2023-02-05T12:50:03;9.20;99.90
13354;DHT22;6746;50.892;4.064;2023-02-05T12:52:51;9.20;99.90
13354;DHT22;6746;50.892;4.064;2023-02-05T12:55:38;9.20;99.90
13354;DHT22;6746;50.892;4.064;2023-02-05T12:58:35;9.20;99.90
13354;DHT22;6746;50.892;4.064;2023-02-05T13:01:10;9.30;99.90
13354;DHT22;6746;50.892;4.064;2023-02-05T13:03:41;9.40;99.90
13354;DHT22;6746;50.892;4.064;2023-02-05T13:06:15;9.40;99.90
13354;DHT22;6746;50.892;4.064;2023-02-05T13:08:46;9.40;99.90
13354;DHT22;6746;50.892;4.064;2023-02-05T13:14:13;9.10;99.90
13354;DHT22;6746;50.892;4.064;2023-02-05T13:17:18;9.00;99.90
13354;DHT22;6746;50.892;4.064;2023-02-05T13:19:41;9.20;99.90
13354;DHT22;6746;50.892;4.064;2023-02-05T13:22:21;9.30;99.90
13354;DHT22;6746;50.892;4.064;2023-02-05T13:31:12;9.10;99.90
13354;DHT22;6746;50.892;4.064;2023-02-05T13:33:39;9.10;99.90
13354;DHT22;6746;50.892;4.064;2023-02-05T13:41:47;9.40;99.90
13354;DHT22;6746;50.892;4.064;2023-02-05T13:50:53;9.40;99.90
13354;DHT22;6746;50.892;4.064;2023-02-05T13:59:17;9.20;99.90
13354;DHT22;6746;50.892;4.064;2023-02-05T14:01:53;9.30;99.90
13354;DHT22;6746;50.892;4.064;2023-02-05T14:04:39;9.20;99.90
13354;DHT22;6746;50.892;4.064;2023-02-05T14:07:21;9.20;99.90
13354;DHT22;6746;50.892;4.064;2023-02-05T14:09:41;9.10;99.90
13354;DHT22;6746;50.892;4.064;2023-02-05T14:12:11;9.00;99.90
13354;DHT22;6746;50.892;4.064;2023-02-05T14:14:39;9.00;99.90
13354;DHT22;6746;50.892;4.064;2023-02-05T14:19:58;9.20;99.90
13354;DHT22;6746;50.892;4.064;2023-02-05T14:22:37;9.20;99.90
13354;DHT22;6746;50.892;4.064;2023-02-05T14:31:00;9.10;99.90
13354;DHT22;6746;50.892;4.064;2023-02-05T14:33:29;9.20;99.90
13354;DHT22;6746;50.892;4.064;2023-02-05T14:41:26;8.90;99.90
13354;DHT22;6746;50.892;4.064;2023-02-05T14:46:43;8.90;99.90
13354;DHT22;6746;50.892;4.064;2023-02-05T14:49:22;8.90;99.90
13354;DHT22;6746;50.892;4.064;2023-02-05T14:52:15;8.80;99.90
13354;DHT22;6746;50.892;4.064;2023-02-05T14:54:54;8.80;99.90
13354;DHT22;6746;50.892;4.064;2023-02-05T15:00:32;8.70;99.90
13354;DHT22;6746;50.892;4.064;2023-02-05T15:11:08;8.50;99.90
13354;DHT22;6746;50.892;4.064;2023-02-05T15:13:35;8.50;99.90
13354;DHT22;6746;50.892;4.064;2023-02-05T15:18:54;8.60;99.90
13354;DHT22;6746;50.892;4.064;2023-02-05T15:21:28;8.70;99.90
13354;DHT22;6746;50.892;4.064;2023-02-05T15:23:58;8.60;99.90
13354;DHT22;6746;50.892;4.064;2023-02-05T15:31:58;8.50;99.90
13354;DHT22;6746;50.892;4.064;2023-02-05T15:37:47;8.40;99.90
13354;DHT22;6746;50.892;4.064;2023-02-05T15:40:24;8.50;99.90
13354;DHT22;6746;50.892;4.064;2023-02-05T15:43:14;8.50;99.90
13354;DHT22;6746;50.892;4.064;2023-02-05T15:46:00;8.40;99.90
13354;DHT22;6746;50.892;4.064;2023-02-05T15:48:36;8.30;99.90
13354;DHT22;6746;50.892;4.064;2023-02-05T15:51:17;8.30;99.90
13354;DHT22;6746;50.892;4.064;2023-02-05T15:54:02;8.20;99.90
13354;DHT22;6746;50.892;4.064;2023-02-05T15:56:36;8.20;99.90
13354;DHT22;6746;50.892;4.064;2023-02-05T15:59:05;8.10;99.90
13354;DHT22;6746;50.892;4.064;2023-02-05T16:01:47;8.10;99.90
13354;DHT22;6746;50.892;4.064;2023-02-05T16:06:54;8.00;99.90
13354;DHT22;6746;50.892;4.064;2023-02-05T16:09:24;8.00;99.90
13354;DHT22;6746;50.892;4.064;2023-02-05T16:12:11;7.90;99.90
13354;DHT22;6746;50.892;4.064;2023-02-05T16:15:01;7.90;99.90
13354;DHT22;6746;50.892;4.064;2023-02-05T16:17:38;7.90;99.90
13354;DHT22;6746;50.892;4.064;2023-02-05T16:20:13;7.80;99.90
13354;DHT22;6746;50.892;4.064;2023-02-05T16:23:00;7.80;99.90
13354;DHT22;6746;50.892;4.064;2023-02-05T16:25:53;7.70;99.90
13354;DHT22;6746;50.892;4.064;2023-02-05T16:28:33;7.70;99.90
13354;DHT22;6746;50.892;4.064;2023-02-05T16:31:00;7.70;99.90
13354;DHT22;6746;50.892;4.064;2023-02-05T16:33:30;7.60;99.90
13354;DHT22;6746;50.892;4.064;2023-02-05T16:36:05;7.60;99.90
13354;DHT22;6746;50.892;4.064;2023-02-05T16:38:34;7.50;99.90
13354;DHT22;6746;50.892;4.064;2023-02-05T16:41:27;7.50;99.90
13354;DHT22;6746;50.892;4.064;2023-02-05T16:43:55;7.50;99.90
13354;DHT22;6746;50.892;4.064;2023-02-05T16:46:27;7.40;99.90
13354;DHT22;6746;50.892;4.064;2023-02-05T16:48:56;7.40;99.90
13354;DHT22;6746;50.892;4.064;2023-02-05T16:56:45;7.40;99.90
13354;DHT22;6746;50.892;4.064;2023-02-05T16:59:21;7.30;99.90
13354;DHT22;6746;50.892;4.064;2023-02-05T17:01:58;7.30;99.90
13354;DHT22;6746;50.892;4.064;2023-02-05T17:04:47;7.30;99.90
13354;DHT22;6746;50.892;4.064;2023-02-05T17:07:28;7.30;99.90
13354;DHT22;6746;50.892;4.064;2023-02-05T17:10:14;7.40;99.90
13354;DHT22;6746;50.892;4.064;2023-02-05T17:12:59;7.30;99.90
13354;DHT22;6746;50.892;4.064;2023-02-05T17:15:43;7.30;99.90
13354;DHT22;6746;50.892;4.064;2023-02-05T17:18:31;7.20;99.90
13354;DHT22;6746;50.892;4.064;2023-02-05T17:21:23;7.10;99.90
13354;DHT22;6746;50.892;4.064;2023-02-05T17:23:57;7.10;99.90
13354;DHT22;6746;50.892;4.064;2023-02-05T17:26:45;7.10;99.90
13354;DHT22;6746;50.892;4.064;2023-02-05T17:29:23;7.10;99.90
13354;DHT22;6746;50.892;4.064;2023-02-05T17:32:02;7.10;99.90
13354;DHT22;6746;50.892;4.064;2023-02-05T17:34:43;7.10;99.90
13354;DHT22;6746;50.892;4.064;2023-02-05T17:37:21;7.00;99.90
13354;DHT22;6746;50.892;4.064;2023-02-05T17:40:12;6.90;99.90
13354;DHT22;6746;50.892;4.064;2023-02-05T17:42:50;6.90;99.90
13354;DHT22;6746;50.892;4.064;2023-02-05T17:45:32;6.90;99.90
13354;DHT22;6746;50.892;4.064;2023-02-05T17:48:09;6.80;99.90
13354;DHT22;6746;50.892;4.064;2023-02-05T17:50:47;6.80;99.90
13354;DHT22;6746;50.892;4.064;2023-02-05T17:53:35;6.70;99.90
13354;DHT22;6746;50.892;4.064;2023-02-05T17:56:14;6.60;99.90
13354;DHT22;6746;50.892;4.064;2023-02-05T17:58:52;6.60;99.90
13354;DHT22;6746;50.892;4.064;2023-02-05T18:01:31;6.60;99.90
13354;DHT22;6746;50.892;4.064;2023-02-05T18:04:09;6.60;99.90
13354;DHT22;6746;50.892;4.064;2023-02-05T18:06:50;6.60;99.90
13354;DHT22;6746;50.892;4.064;2023-02-05T18:09:29;6.60;99.90
13354;DHT22;6746;50.892;4.064;2023-02-05T18:12:16;6.50;99.90
13354;DHT22;6746;50.892;4.064;2023-02-05T18:14:57;6.50;99.90
13354;DHT22;6746;50.892;4.064;2023-02-05T18:17:35;6.50;99.90
13354;DHT22;6746;50.892;4.064;2023-02-05T18:20:17;6.40;99.90
13354;DHT22;6746;50.892;4.064;2023-02-05T18:22:54;6.50;99.90
13354;DHT22;6746;50.892;4.064;2023-02-05T18:25:38;6.40;99.90
13354;DHT22;6746;50.892;4.064;2023-02-05T18:28:16;6.40;99.90
13354;DHT22;6746;50.892;4.064;2023-02-05T18:31:07;6.30;99.90
13354;DHT22;6746;50.892;4.064;2023-02-05T18:33:47;6.30;99.90
13354;DHT22;6746;50.892;4.064;2023-02-05T18:36:30;6.30;99.90
13354;DHT22;6746;50.892;4.064;2023-02-05T18:39:08;6.30;99.90
13354;DHT22;6746;50.892;4.064;2023-02-05T18:41:46;6.30;99.90
13354;DHT22;6746;50.892;4.064;2023-02-05T18:44:25;6.20;99.90
13354;DHT22;6746;50.892;4.064;2023-02-05T18:47:08;6.30;99.90
13354;DHT22;6746;50.892;4.064;2023-02-05T18:49:47;6.20;99.90
13354;DHT22;6746;50.892;4.064;2023-02-05T18:52:26;6.20;99.90
13354;DHT22;6746;50.892;4.064;2023-02-05T18:55:06;6.10;99.90
13354;DHT22;6746;50.892;4.064;2023-02-05T18:57:50;6.10;99.90
13354;DHT22;6746;50.892;4.064;2023-02-05T19:00:25;6.10;99.90
13354;DHT22;6746;50.892;4.064;2023-02-05T19:03:06;6.00;99.90
13354;DHT22;6746;50.892;4.064;2023-02-05T19:05:45;6.00;99.90
13354;DHT22;6746;50.892;4.064;2023-02-05T19:08:33;5.90;99.90
13354;DHT22;6746;50.892;4.064;2023-02-05T19:11:21;5.90;99.90
13354;DHT22;6746;50.892;4.064;2023-02-05T19:13:55;5.90;99.90
13354;DHT22;6746;50.892;4.064;2023-02-05T19:16:43;5.90;99.90
13354;DHT22;6746;50.892;4.064;2023-02-05T19:19:23;5.90;99.90
13354;DHT22;6746;50.892;4.064;2023-02-05T19:22:00;5.80;99.90
13354;DHT22;6746;50.892;4.064;2023-02-05T19:24:48;5.80;99.90
13354;DHT22;6746;50.892;4.064;2023-02-05T19:27:36;5.80;99.90
13354;DHT22;6746;50.892;4.064;2023-02-05T19:30:24;5.70;99.90
13354;DHT22;6746;50.892;4.064;2023-02-05T19:33:13;5.70;99.90
13354;DHT22;6746;50.892;4.064;2023-02-05T19:35:51;5.60;99.90
13354;DHT22;6746;50.892;4.064;2023-02-05T19:38:30;5.60;99.90
13354;DHT22;6746;50.892;4.064;2023-02-05T19:41:12;5.50;99.90